Time;durP1;ratioP1;P1;durP2;ratioP2;P2;SDS_P1;SDS_P2;PMS_P1;PMS_P2;Temp;Humidity;BMP_temperature;BMP_pressure;BME280_temperature;BME280_humidity;BME280_pressure;Samples;Min_cycle;Max_cycle;Signal;HPM_P1;HPM_P2
2022/05/23 00:01:51;;;;;;;4.77;2.03;;;15.10;99.90;;;;;;5041013;28;20536;-85
2022/05/23 00:04:17;;;;;;;5.90;1.80;;;15.20;99.90;;;;;;5039060;28;20237;-83
2022/05/23 00:06:43;;;;;;;6.57;2.20;;;15.10;99.90;;;;;;5039261;28;20178;-85
2022/05/23 00:09:10;;;;;;;6.53;2.43;;;15.10;99.90;;;;;;5039667;28;20174;-84
2022/05/23 00:11:36;;;;;;;3.33;1.90;;;15.10;99.90;;;;;;5039492;28;20206;-84
2022/05/23 00:14:02;;;;;;;5.77;1.83;;;15.20;99.90;;;;;;5038375;28;20198;-84
2022/05/23 00:16:42;;;;;;;4.73;2.30;;;15.20;99.90;;;;;;5037622;28;20174;-85
2022/05/23 00:19:09;;;;;;;8.60;2.10;;;15.20;99.90;;;;;;5035273;28;20173;-84
2022/05/23 00:21:40;;;;;;;4.13;2.00;;;15.20;99.90;;;;;;5034417;28;20197;-82
2022/05/23 00:24:10;;;;;;;8.37;2.10;;;15.10;99.90;;;;;;5035725;28;20178;-83
2022/05/23 00:26:36;;;;;;;8.13;2.13;;;15.20;99.90;;;;;;5035089;28;20178;-83
2022/05/23 00:29:03;;;;;;;3.30;1.80;;;15.20;99.90;;;;;;5034965;28;20200;-83
2022/05/23 00:31:29;;;;;;;6.07;2.30;;;15.20;99.90;;;;;;5034786;28;20194;-83
2022/05/23 00:36:39;;;;;;;3.67;2.10;;;15.30;99.90;;;;;;5035437;28;20188;-84
2022/05/23 00:39:05;;;;;;;5.83;2.30;;;15.30;99.90;;;;;;5034328;28;20174;-83
2022/05/23 00:44:20;;;;;;;5.30;2.03;;;15.20;99.90;;;;;;5035586;28;20224;-83
2022/05/23 00:47:02;;;;;;;4.23;2.13;;;15.30;99.90;;;;;;5033892;28;20166;-83
2022/05/23 00:49:34;;;;;;;6.03;2.43;;;15.20;99.90;;;;;;5034177;28;20210;-83
2022/05/23 00:52:05;;;;;;;5.33;1.93;;;15.20;99.90;;;;;;5033004;28;20194;-83
2022/05/23 00:54:38;;;;;;;6.37;2.10;;;15.10;99.90;;;;;;5032848;28;20235;-85
2022/05/23 00:57:05;;;;;;;3.90;2.10;;;15.20;99.90;;;;;;5033258;28;20223;-84
2022/05/23 00:59:33;;;;;;;6.83;2.60;;;15.20;99.90;;;;;;5032691;28;20188;-85
2022/05/23 01:02:02;;;;;;;7.87;2.70;;;15.10;99.90;;;;;;5033259;28;20199;-85
2022/05/23 01:04:30;;;;;;;5.23;2.23;;;15.20;99.90;;;;;;5032400;28;20665;-86
2022/05/23 01:06:56;;;;;;;6.70;2.50;;;15.10;99.90;;;;;;5032175;28;20174;-83
2022/05/23 01:09:25;;;;;;;5.73;2.20;;;15.10;99.90;;;;;;5033085;28;20610;-84
2022/05/23 01:11:53;;;;;;;3.03;2.00;;;15.20;99.90;;;;;;5033313;28;20193;-83
2022/05/23 01:14:20;;;;;;;6.37;2.37;;;15.10;99.90;;;;;;5032793;28;20229;-84
2022/05/23 01:16:45;;;;;;;4.60;2.00;;;15.10;99.90;;;;;;5032608;28;20582;-82
2022/05/23 01:19:11;;;;;;;6.63;2.47;;;15.10;99.90;;;;;;5036011;28;20175;-85
2022/05/23 01:21:54;;;;;;;4.93;2.30;;;15.10;99.90;;;;;;5038774;28;20190;-84
2022/05/23 01:24:40;;;;;;;6.47;2.30;;;15.00;99.90;;;;;;5041322;28;20166;-84
2022/05/23 01:27:07;;;;;;;6.50;1.97;;;15.10;99.90;;;;;;5038425;28;20166;-86
2022/05/23 01:29:32;;;;;;;6.90;2.47;;;15.00;99.90;;;;;;5037956;28;20596;-85
2022/05/23 01:31:59;;;;;;;6.80;2.43;;;15.00;99.90;;;;;;5037625;28;20195;-85
2022/05/23 01:34:26;;;;;;;3.80;2.20;;;15.00;99.90;;;;;;5037034;28;20753;-84
2022/05/23 01:36:53;;;;;;;5.73;2.40;;;15.00;99.90;;;;;;5037443;28;20205;-84
2022/05/23 01:39:19;;;;;;;6.00;2.13;;;15.00;99.90;;;;;;5037784;28;20181;-84
2022/05/23 01:41:44;;;;;;;5.67;2.47;;;15.00;99.90;;;;;;5037772;28;20276;-85
2022/05/23 01:44:10;;;;;;;5.30;2.40;;;15.00;99.90;;;;;;5037806;28;20227;-85
2022/05/23 01:46:36;;;;;;;4.13;2.20;;;15.00;99.90;;;;;;5038012;28;20178;-83
2022/05/23 01:49:01;;;;;;;5.60;2.37;;;15.00;99.90;;;;;;5036029;28;20659;-85
2022/05/23 01:51:28;;;;;;;4.70;2.27;;;14.90;99.90;;;;;;5038493;28;20190;-84
2022/05/23 01:53:54;;;;;;;2.50;2.07;;;15.00;99.90;;;;;;5036843;28;20237;-84
2022/05/23 01:56:19;;;;;;;7.27;2.57;;;14.90;99.90;;;;;;5037423;28;20437;-83
2022/05/23 02:01:29;;;;;;;7.23;2.90;;;15.00;99.90;;;;;;5040781;28;20252;-84
2022/05/23 02:03:55;;;;;;;5.33;2.57;;;15.00;99.90;;;;;;5040992;28;20185;-85
2022/05/23 02:06:20;;;;;;;5.73;2.60;;;14.90;99.90;;;;;;5040292;28;20166;-84
2022/05/23 02:08:46;;;;;;;5.43;2.80;;;14.90;99.90;;;;;;5040703;28;20235;-84
2022/05/23 02:11:12;;;;;;;9.13;2.93;;;14.90;99.90;;;;;;5041108;28;20201;-84
2022/05/23 02:13:42;;;;;;;5.50;2.43;;;14.90;99.90;;;;;;5042434;28;20265;-83
2022/05/23 02:16:07;;;;;;;4.37;2.70;;;14.90;99.90;;;;;;5040386;28;20170;-85
2022/05/23 02:18:33;;;;;;;7.23;2.90;;;14.90;99.90;;;;;;5040176;28;20170;-84
2022/05/23 02:20:59;;;;;;;6.50;2.70;;;14.90;99.90;;;;;;5037006;28;20190;-84
2022/05/23 02:23:25;;;;;;;6.47;2.90;;;15.00;99.90;;;;;;5038627;28;20186;-84
2022/05/23 02:25:51;;;;;;;5.43;2.77;;;14.80;99.90;;;;;;5037613;28;20170;-84
2022/05/23 02:28:18;;;;;;;3.80;2.20;;;14.90;99.90;;;;;;5038011;28;20177;-83
2022/05/23 02:30:45;;;;;;;5.73;2.70;;;14.90;99.90;;;;;;5039259;28;20677;-83
2022/05/23 02:33:11;;;;;;;5.30;2.63;;;14.80;99.90;;;;;;5038874;28;20205;-82
2022/05/23 02:35:37;;;;;;;7.07;3.20;;;14.90;99.90;;;;;;5039377;28;20880;-83
2022/05/23 02:38:02;;;;;;;6.93;3.13;;;14.80;99.90;;;;;;5038402;28;20174;-84
2022/05/23 02:40:28;;;;;;;7.47;2.90;;;14.80;99.90;;;;;;5038922;28;20203;-85
2022/05/23 02:42:53;;;;;;;6.27;2.97;;;14.80;99.90;;;;;;5038650;28;20748;-84
2022/05/23 02:45:19;;;;;;;5.37;3.03;;;14.80;99.90;;;;;;5039261;28;20646;-85
2022/05/23 02:47:45;;;;;;;6.10;2.80;;;14.80;99.90;;;;;;5037514;28;20645;-84
2022/05/23 02:50:12;;;;;;;8.00;3.53;;;14.80;99.90;;;;;;5037745;28;20678;-85
2022/05/23 02:52:39;;;;;;;8.83;3.00;;;14.70;99.90;;;;;;5038959;28;20568;-83
2022/05/23 02:55:06;;;;;;;8.37;3.40;;;14.70;99.90;;;;;;5039210;28;20224;-85
2022/05/23 02:57:33;;;;;;;8.10;3.33;;;14.80;99.90;;;;;;5038877;28;20185;-84
2022/05/23 02:59:58;;;;;;;7.97;3.73;;;14.70;99.90;;;;;;5038501;28;20177;-84
2022/05/23 03:05:09;;;;;;;7.00;3.43;;;14.70;99.90;;;;;;5040374;28;20207;-84
2022/05/23 03:07:34;;;;;;;6.30;3.80;;;14.70;99.90;;;;;;5037765;28;20177;-84
2022/05/23 03:10:00;;;;;;;5.23;2.97;;;14.60;99.90;;;;;;5037496;28;20178;-83
2022/05/23 03:12:28;;;;;;;7.20;3.53;;;14.70;99.90;;;;;;5038789;28;20174;-84
2022/05/23 03:14:53;;;;;;;4.63;3.30;;;14.60;99.90;;;;;;5038460;28;20301;-83
2022/05/23 03:17:19;;;;;;;5.73;3.60;;;14.60;99.90;;;;;;5039122;28;20205;-83
2022/05/23 03:19:45;;;;;;;6.63;3.67;;;14.60;99.90;;;;;;5037264;28;20180;-85
2022/05/23 03:27:43;;;;;;;7.87;3.60;;;14.50;99.90;;;;;;5042669;28;20208;-84
2022/05/23 03:30:10;;;;;;;11.97;3.60;;;14.50;99.90;;;;;;5041259;28;20265;-83
2022/05/23 03:32:36;;;;;;;7.93;3.57;;;14.50;99.90;;;;;;5042232;28;20185;-85
2022/05/23 03:35:02;;;;;;;7.20;3.90;;;14.40;99.90;;;;;;5041124;28;20290;-85
2022/05/23 03:37:28;;;;;;;7.33;3.57;;;14.60;99.90;;;;;;5040699;28;20181;-84
2022/05/23 03:39:54;;;;;;;6.20;4.00;;;14.60;99.90;;;;;;5040304;28;20177;-84
2022/05/23 03:42:20;;;;;;;7.67;3.80;;;14.50;99.90;;;;;;5041073;28;20180;-84
2022/05/23 03:44:45;;;;;;;7.97;3.73;;;14.50;99.90;;;;;;5040529;28;20185;-83
2022/05/23 03:47:11;;;;;;;8.20;3.60;;;14.50;99.90;;;;;;5040248;28;20793;-83
2022/05/23 03:49:37;;;;;;;5.93;3.77;;;14.50;99.90;;;;;;5040985;28;20177;-83
2022/05/23 03:52:03;;;;;;;10.43;3.90;;;14.50;99.90;;;;;;5040818;28;20190;-84
2022/05/23 03:54:29;;;;;;;7.53;3.90;;;14.60;99.90;;;;;;5039527;28;20281;-85
2022/05/23 03:57:03;;;;;;;10.13;4.20;;;14.60;99.90;;;;;;5040944;28;20189;-84
2022/05/23 03:59:30;;;;;;;9.27;3.63;;;14.50;99.90;;;;;;5039593;28;20197;-84
2022/05/23 04:01:57;;;;;;;5.83;4.40;;;14.60;99.90;;;;;;5040098;28;20217;-84
2022/05/23 04:04:29;;;;;;;8.93;4.67;;;14.50;99.90;;;;;;5040009;28;20181;-84
2022/05/23 04:07:03;;;;;;;8.70;3.90;;;14.50;99.90;;;;;;5040002;28;20188;-85
2022/05/23 04:09:29;;;;;;;8.03;4.33;;;14.50;99.90;;;;;;5039816;28;20231;-85
2022/05/23 04:11:56;;;;;;;8.67;4.43;;;14.60;99.90;;;;;;5040480;28;20229;-84
2022/05/23 04:14:22;;;;;;;11.90;4.20;;;14.50;99.90;;;;;;5040134;28;20197;-83
2022/05/23 04:16:49;;;;;;;9.23;4.30;;;14.70;99.90;;;;;;5040440;28;20180;-84
2022/05/23 04:19:16;;;;;;;11.97;4.17;;;14.70;99.90;;;;;;5036525;28;20166;-84
2022/05/23 04:21:43;;;;;;;9.23;4.13;;;14.60;99.90;;;;;;5037650;28;20266;-83
2022/05/23 04:24:09;;;;;;;8.53;3.90;;;14.60;99.90;;;;;;5035870;28;20575;-83
2022/05/23 04:26:35;;;;;;;11.57;4.37;;;14.70;99.90;;;;;;5036909;28;20177;-83
2022/05/23 04:29:01;;;;;;;11.13;5.03;;;14.70;99.90;;;;;;5036377;28;20672;-83
2022/05/23 04:31:27;;;;;;;10.53;4.50;;;14.70;99.90;;;;;;5037340;28;20212;-85
2022/05/23 04:36:37;;;;;;;8.20;4.40;;;14.70;99.90;;;;;;5037997;28;20214;-83
2022/05/23 04:39:03;;;;;;;12.73;4.47;;;14.80;99.90;;;;;;5036437;28;20657;-83
2022/05/23 04:41:29;;;;;;;6.57;4.40;;;14.70;99.90;;;;;;5034961;28;20594;-84
2022/05/23 04:43:55;;;;;;;9.67;4.80;;;14.70;99.90;;;;;;5035605;28;20228;-85
2022/05/23 04:46:21;;;;;;;10.10;4.30;;;14.80;99.90;;;;;;5035677;28;20174;-84
2022/05/23 04:51:31;;;;;;;7.63;5.00;;;14.80;99.90;;;;;;5036766;28;20213;-85
2022/05/23 04:53:57;;;;;;;9.73;4.40;;;14.80;99.90;;;;;;5038087;28;20205;-83
2022/05/23 04:56:25;;;;;;;7.90;4.53;;;14.80;99.90;;;;;;5038295;28;20170;-83
2022/05/23 04:58:50;;;;;;;8.17;4.63;;;14.80;99.90;;;;;;5037218;28;20170;-86
2022/05/23 05:01:16;;;;;;;11.23;4.67;;;14.70;99.90;;;;;;5036764;28;20694;-85
2022/05/23 05:03:42;;;;;;;12.77;4.60;;;14.90;99.90;;;;;;5037752;28;20169;-85
2022/05/23 05:06:08;;;;;;;10.27;4.93;;;14.90;99.90;;;;;;5038174;28;20175;-83
2022/05/23 05:08:34;;;;;;;9.03;4.40;;;14.90;99.90;;;;;;5039054;28;20511;-83
2022/05/23 05:11:03;;;;;;;8.60;5.00;;;14.80;99.90;;;;;;5037571;28;20197;-84
2022/05/23 05:13:32;;;;;;;11.80;4.77;;;15.00;99.90;;;;;;5038032;28;20292;-83
2022/05/23 05:16:02;;;;;;;16.90;4.97;;;15.10;99.90;;;;;;5037532;28;20200;-83
2022/05/23 05:18:29;;;;;;;13.30;5.30;;;15.10;99.90;;;;;;5037902;28;20169;-84
2022/05/23 05:20:54;;;;;;;9.23;5.00;;;15.00;99.90;;;;;;5037996;28;20714;-84
2022/05/23 05:23:20;;;;;;;17.17;5.37;;;15.10;99.90;;;;;;5038670;28;20178;-83
2022/05/23 05:25:46;;;;;;;11.47;4.90;;;15.00;99.90;;;;;;5039100;28;20192;-84
2022/05/23 05:28:12;;;;;;;14.23;4.63;;;15.00;99.90;;;;;;5038801;28;20182;-83
2022/05/23 05:30:54;;;;;;;12.70;4.83;;;15.10;99.90;;;;;;5039469;28;20678;-84
2022/05/23 05:33:26;;;;;;;7.13;4.67;;;15.20;99.90;;;;;;5038297;28;20224;-83
2022/05/23 05:36:04;;;;;;;10.60;5.00;;;15.20;99.90;;;;;;5039783;28;20430;-84
2022/05/23 05:38:49;;;;;;;7.73;4.70;;;15.20;99.90;;;;;;5043054;28;20249;-84
2022/05/23 05:41:20;;;;;;;14.77;4.93;;;15.20;99.90;;;;;;5042533;28;20190;-84
2022/05/23 05:44:12;;;;;;;14.23;5.77;;;15.30;99.90;;;;;;5042660;28;20220;-83
2022/05/23 05:46:41;;;;;;;11.90;5.30;;;15.30;99.90;;;;;;5041709;28;20181;-83
2022/05/23 05:49:13;;;;;;;9.50;5.10;;;15.40;99.90;;;;;;5040641;28;20181;-84
2022/05/23 05:51:41;;;;;;;8.30;4.97;;;15.40;99.90;;;;;;5038272;28;20674;-83
2022/05/23 05:54:12;;;;;;;13.43;4.90;;;15.50;99.90;;;;;;5038845;28;20561;-84
2022/05/23 05:56:39;;;;;;;10.57;5.00;;;15.60;99.90;;;;;;5038394;28;20162;-83
2022/05/23 05:59:05;;;;;;;11.10;5.37;;;15.70;99.90;;;;;;5039110;28;20192;-83
2022/05/23 06:01:30;;;;;;;7.87;4.70;;;15.70;99.90;;;;;;5037684;28;20667;-83
2022/05/23 06:03:56;;;;;;;14.07;5.03;;;15.70;99.90;;;;;;5037651;28;20174;-84
2022/05/23 06:11:50;;;;;;;13.27;4.93;;;16.10;99.90;;;;;;5041019;28;20204;-85
2022/05/23 06:14:15;;;;;;;12.93;4.93;;;16.20;99.90;;;;;;5038109;28;20206;-84
2022/05/23 06:16:41;;;;;;;12.60;4.40;;;16.30;99.90;;;;;;5036110;28;20176;-87
2022/05/23 06:19:07;;;;;;;16.07;5.27;;;16.30;99.90;;;;;;5034382;28;20240;-86
2022/05/23 06:21:32;;;;;;;12.93;4.80;;;16.40;99.90;;;;;;5034301;28;20198;-86
2022/05/23 06:23:58;;;;;;;12.67;4.77;;;16.50;99.90;;;;;;5034092;28;20208;-85
2022/05/23 06:26:26;;;;;;;12.37;4.97;;;16.40;99.90;;;;;;5033937;28;20276;-86
2022/05/23 06:28:52;;;;;;;14.93;4.57;;;16.60;99.90;;;;;;5034661;28;20642;-86
2022/05/23 06:31:19;;;;;;;20.97;5.10;;;16.80;99.90;;;;;;5034574;28;20670;-87
2022/05/23 06:33:46;;;;;;;7.23;4.33;;;16.90;99.90;;;;;;5034058;28;20288;-84
2022/05/23 06:36:13;;;;;;;10.43;4.77;;;17.00;99.90;;;;;;5033943;28;20169;-86
2022/05/23 06:38:39;;;;;;;7.33;4.60;;;17.10;99.90;;;;;;5034516;28;20177;-85
2022/05/23 06:41:07;;;;;;;13.17;4.20;;;17.20;99.90;;;;;;5035086;28;20186;-85
2022/05/23 06:43:33;;;;;;;6.10;3.90;;;17.20;99.90;;;;;;5034447;28;20178;-85
2022/05/23 06:45:59;;;;;;;9.33;4.23;;;17.30;99.90;;;;;;5034363;28;20170;-86
2022/05/23 06:48:26;;;;;;;9.80;5.10;;;17.50;99.90;;;;;;5033776;28;20182;-86
2022/05/23 06:50:53;;;;;;;10.93;4.40;;;17.60;99.90;;;;;;5033665;28;20252;-85
2022/05/23 06:53:20;;;;;;;10.60;4.30;;;17.30;99.90;;;;;;5033995;28;20205;-85
2022/05/23 06:55:47;;;;;;;8.87;4.37;;;17.30;99.90;;;;;;5034381;28;20204;-86
2022/05/23 06:58:12;;;;;;;12.80;4.40;;;17.60;99.90;;;;;;5034926;28;20613;-86
2022/05/23 07:00:39;;;;;;;8.23;3.93;;;18.00;99.90;;;;;;5033720;28;20278;-85
2022/05/23 07:03:05;;;;;;;6.63;4.27;;;18.10;99.90;;;;;;5034808;28;20185;-85
2022/05/23 07:13:45;;;;;;;9.30;3.73;;;18.30;99.90;;;;;;5018066;28;20212;-85
2022/05/23 07:16:13;;;;;;;6.57;3.78;;;19.00;99.90;;;;;;5013836;28;20167;-84
2022/05/23 07:18:38;;;;;;;8.00;4.05;;;19.00;99.90;;;;;;5015172;28;20163;-84
2022/05/23 07:21:07;;;;;;;7.65;3.53;;;19.30;99.90;;;;;;5016288;28;20610;-86
2022/05/23 07:23:35;;;;;;;10.27;3.80;;;19.40;99.90;;;;;;5016202;28;20561;-86
2022/05/23 07:26:02;;;;;;;8.80;4.20;;;19.70;99.90;;;;;;5018337;28;20253;-85
2022/05/23 07:28:27;;;;;;;9.13;3.67;;;20.00;99.90;;;;;;5016612;28;20194;-86
2022/05/23 07:30:53;;;;;;;11.75;3.95;;;20.20;99.90;;;;;;5017533;28;20206;-86
2022/05/23 07:33:19;;;;;;;12.07;4.32;;;20.50;99.90;;;;;;5018327;28;20198;-87
2022/05/23 07:35:45;;;;;;;7.45;3.53;;;20.60;99.90;;;;;;5017823;28;20182;-87
2022/05/23 07:38:10;;;;;;;10.05;3.83;;;20.70;99.90;;;;;;5018226;28;20181;-85
2022/05/23 07:40:36;;;;;;;8.55;3.70;;;20.10;99.90;;;;;;5017235;28;20575;-85
2022/05/23 07:43:02;;;;;;;8.02;3.75;;;20.80;99.90;;;;;;5017199;28;20241;-87
2022/05/23 07:45:27;;;;;;;5.65;3.55;;;21.10;99.90;;;;;;5016917;28;20710;-86
2022/05/23 07:47:53;;;;;;;5.75;3.47;;;21.30;99.90;;;;;;5015986;28;20583;-87
2022/05/23 07:50:19;;;;;;;7.57;3.83;;;21.30;99.90;;;;;;5016898;28;20195;-86
2022/05/23 08:00:31;;;;;;;8.38;3.58;;;21.10;99.90;;;;;;5016006;28;20182;-84
2022/05/23 08:00:58;;;;;;;5.57;3.85;;;21.20;99.90;;;;;;5016549;28;20232;-84
2022/05/23 08:03:24;;;;;;;8.60;3.67;;;21.50;99.90;;;;;;5014285;28;20174;-84
2022/05/23 08:05:50;;;;;;;6.32;3.25;;;21.10;99.90;;;;;;5017686;28;20672;-83
2022/05/23 08:08:15;;;;;;;7.60;3.63;;;21.10;99.90;;;;;;5017503;28;20217;-83
2022/05/23 08:10:41;;;;;;;7.22;3.53;;;20.90;99.90;;;;;;5018606;28;20254;-85
2022/05/23 08:13:10;;;;;;;9.10;3.83;;;21.30;99.90;;;;;;5017710;28;20210;-84
2022/05/23 08:15:38;;;;;;;11.13;3.47;;;21.10;99.90;;;;;;5017209;28;20201;-84
2022/05/23 08:18:08;;;;;;;8.68;4.15;;;21.20;99.90;;;;;;5018732;28;20175;-85
2022/05/23 08:20:35;;;;;;;5.13;3.38;;;21.00;99.90;;;;;;5017282;28;20249;-83
2022/05/23 08:23:00;;;;;;;5.97;3.38;;;21.20;99.90;;;;;;5018033;28;20175;-82
2022/05/23 08:25:27;;;;;;;8.25;3.25;;;21.50;99.90;;;;;;5019207;28;20539;-83
2022/05/23 08:27:53;;;;;;;5.65;3.33;;;22.10;99.90;;;;;;5020645;28;20662;-85
2022/05/23 08:30:20;;;;;;;11.55;4.03;;;22.50;99.90;;;;;;5019417;28;20195;-82
2022/05/23 08:32:46;;;;;;;5.78;3.53;;;22.10;99.80;;;;;;5019094;28;20214;-85
2022/05/23 08:35:12;;;;;;;7.20;3.80;;;21.60;99.90;;;;;;5012319;28;20213;-83
2022/05/23 08:37:39;;;;;;;9.18;3.47;;;22.00;99.90;;;;;;5012352;28;20635;-85
2022/05/23 08:40:07;;;;;;;9.25;3.30;;;22.30;99.90;;;;;;5011844;28;20175;-83
2022/05/23 08:42:56;;;;;;;7.57;3.25;;;21.90;99.80;;;;;;5011797;28;20228;-85
2022/05/23 08:45:35;;;;;;;6.47;3.60;;;22.10;99.80;;;;;;5013102;28;20166;-84
2022/05/23 08:48:04;;;;;;;6.85;3.33;;;21.90;99.50;;;;;;5013662;28;20254;-85
2022/05/23 08:50:55;;;;;;;9.20;3.70;;;22.70;99.90;;;;;;5012516;28;20667;-84
2022/05/23 08:53:27;;;;;;;8.15;3.47;;;23.20;98.70;;;;;;5011564;28;20245;-86
2022/05/23 08:55:58;;;;;;;7.57;3.28;;;23.30;99.50;;;;;;5010205;28;20182;-86
2022/05/23 08:58:52;;;;;;;7.53;3.58;;;23.00;98.00;;;;;;5011269;28;20194;-84
2022/05/23 09:01:45;;;;;;;10.93;3.53;;;22.40;98.40;;;;;;5010958;28;20499;-86
2022/05/23 09:04:16;;;;;;;7.85;3.58;;;22.60;99.30;;;;;;5011393;28;20593;-84
2022/05/23 09:06:49;;;;;;;8.10;3.28;;;22.80;98.10;;;;;;5011105;28;20202;-85
2022/05/23 09:09:18;;;;;;;9.13;3.47;;;22.60;98.50;;;;;;5011652;28;20265;-84
2022/05/23 09:11:48;;;;;;;7.68;3.40;;;22.80;99.50;;;;;;5016793;28;20191;-84
2022/05/23 09:14:18;;;;;;;10.00;3.95;;;23.00;97.60;;;;;;5016730;28;20210;-85
2022/05/23 09:16:53;;;;;;;7.25;3.22;;;22.70;97.30;;;;;;5017728;28;20178;-83
2022/05/23 09:19:28;;;;;;;6.40;3.60;;;23.20;97.80;;;;;;5017411;28;20185;-84
2022/05/23 09:22:13;;;;;;;7.07;3.13;;;23.30;97.80;;;;;;5017508;28;20224;-85
2022/05/23 09:24:54;;;;;;;17.45;3.47;;;23.80;95.80;;;;;;5017161;28;20198;-85
2022/05/23 09:27:37;;;;;;;7.35;3.08;;;24.20;97.30;;;;;;5016822;28;20670;-85
2022/05/23 09:30:06;;;;;;;12.32;3.35;;;24.10;96.40;;;;;;5016412;28;20233;-85
2022/05/23 09:32:41;;;;;;;7.53;3.63;;;23.60;96.70;;;;;;5017164;28;20175;-84
2022/05/23 09:35:16;;;;;;;7.10;3.20;;;23.30;96.20;;;;;;5016999;28;20198;-87
2022/05/23 09:37:46;;;;;;;5.15;3.15;;;23.30;97.30;;;;;;5017117;28;20166;-84
2022/05/23 09:40:27;;;;;;;8.52;3.25;;;22.90;98.10;;;;;;5019570;28;20191;-84
2022/05/23 09:49:20;;;;;;;4.88;3.53;;;22.80;97.10;;;;;;5019835;28;20233;-83
2022/05/23 09:52:13;;;;;;;6.65;3.63;;;23.10;97.50;;;;;;5013751;28;20217;-83
2022/05/23 09:54:44;;;;;;;7.68;3.90;;;23.40;97.40;;;;;;5014042;28;20404;-82
2022/05/23 09:57:32;;;;;;;10.85;3.45;;;24.00;95.10;;;;;;5015254;28;20179;-82
2022/05/23 10:00:00;;;;;;;11.07;3.47;;;24.40;96.60;;;;;;5011204;28;20654;-81
2022/05/23 10:02:34;;;;;;;9.63;3.33;;;24.60;95.30;;;;;;5014053;28;20167;-81
2022/05/23 10:04:59;;;;;;;7.60;3.20;;;23.90;95.30;;;;;;5014682;28;20179;-81
2022/05/23 10:07:35;;;;;;;7.82;3.38;;;23.40;95.30;;;;;;5014733;28;20698;-79
2022/05/23 10:10:30;;;;;;;6.45;3.60;;;23.30;95.50;;;;;;5013960;28;20292;-80
2022/05/23 10:13:20;;;;;;;13.55;3.10;;;23.00;96.30;;;;;;5013761;28;20170;-82
2022/05/23 10:15:52;;;;;;;8.57;3.60;;;23.50;96.60;;;;;;5014083;28;20191;-83
2022/05/23 10:18:32;;;;;;;9.13;3.30;;;23.70;95.60;;;;;;5013612;28;20175;-80
2022/05/23 10:21:00;;;;;;;7.40;3.30;;;23.90;97.20;;;;;;5013490;28;20197;-81
2022/05/23 10:23:33;;;;;;;5.85;3.47;;;23.80;96.60;;;;;;5014065;28;20179;-82
2022/05/23 10:26:20;;;;;;;9.02;3.15;;;24.00;96.00;;;;;;5014509;28;20175;-80
2022/05/23 10:29:05;;;;;;;4.45;3.20;;;24.00;95.40;;;;;;5014549;28;20561;-81
2022/05/23 10:32:01;;;;;;;5.82;3.28;;;24.50;96.30;;;;;;5013578;28;20251;-82
2022/05/23 10:34:53;;;;;;;3.88;2.88;;;24.40;95.20;;;;;;5013881;28;20209;-81
2022/05/23 10:37:24;;;;;;;7.85;3.05;;;24.30;95.40;;;;;;5013326;28;20170;-82
2022/05/23 10:42:40;;;;;;;5.15;3.42;;;24.80;95.00;;;;;;5015501;28;20177;-80
2022/05/23 10:45:51;;;;;;;8.70;3.10;;;24.40;94.20;;;;;;5015036;28;20179;-82
2022/05/23 10:48:44;;;;;;;6.25;2.90;;;24.00;96.00;;;;;;4995548;28;20651;-83
2022/05/23 10:51:21;;;;;;;6.35;3.38;;;24.20;94.60;;;;;;5013372;28;20209;-83
2022/05/23 10:54:20;;;;;;;7.15;3.20;;;23.80;95.00;;;;;;5015868;28;20367;-79
2022/05/23 10:57:07;;;;;;;13.90;3.38;;;24.10;94.90;;;;;;4997720;28;20656;-78
2022/05/23 10:59:43;;;;;;;8.90;3.00;;;24.20;95.80;;;;;;5017958;28;20175;-79
2022/05/23 11:02:09;;;;;;;5.18;3.00;;;24.50;95.10;;;;;;5015680;28;20272;-78
2022/05/23 11:04:59;;;;;;;5.90;3.35;;;24.80;95.20;;;;;;5015518;28;20171;-77
2022/05/23 11:07:51;;;;;;;7.05;3.70;;;24.60;94.40;;;;;;5015765;28;20217;-78
2022/05/23 11:10:41;;;;;;;8.43;3.42;;;24.70;94.40;;;;;;5017245;28;20194;-81
2022/05/23 11:13:10;;;;;;;8.95;3.20;;;23.80;94.80;;;;;;5014589;28;20664;-79
2022/05/23 11:15:39;;;;;;;8.13;3.03;;;24.40;95.40;;;;;;5015064;28;20167;-79
2022/05/23 11:18:47;;;;;;;8.13;3.35;;;25.00;94.10;;;;;;5014722;28;20170;-78
2022/05/23 11:21:21;;;;;;;10.70;2.90;;;25.40;94.40;;;;;;5012583;28;20298;-80
2022/05/23 11:23:56;;;;;;;7.30;3.22;;;25.40;94.60;;;;;;5015467;28;20221;-80
2022/05/23 11:26:25;;;;;;;6.95;3.17;;;26.20;92.20;;;;;;5017338;28;20547;-81
2022/05/23 11:34:56;;;;;;;4.82;2.90;;;26.00;92.00;;;;;;5016452;28;20237;-79
2022/05/23 11:39:55;;;;;;;6.65;2.95;;;26.00;93.70;;;;;;5016285;28;20166;-80
2022/05/23 11:42:53;;;;;;;5.80;2.75;;;25.70;92.60;;;;;;5015604;28;20175;-78
2022/05/23 11:46:02;;;;;;;8.85;2.80;;;25.70;93.40;;;;;;5014217;28;20174;-78
2022/05/23 11:48:50;;;;;;;5.20;2.70;;;25.50;92.80;;;;;;5017076;28;20174;-80
2022/05/23 11:51:23;;;;;;;4.43;2.42;;;25.00;93.70;;;;;;5015877;28;20688;-81
2022/05/23 11:54:01;;;;;;;5.07;2.38;;;25.50;93.50;;;;;;5014871;28;20241;-81
2022/05/23 11:56:47;;;;;;;3.72;2.60;;;25.50;92.80;;;;;;5013194;28;20185;-83
2022/05/23 11:59:25;;;;;;;4.85;2.40;;;25.50;92.80;;;;;;5013225;28;20242;-82
2022/05/23 12:02:10;;;;;;;6.13;2.22;;;25.90;91.30;;;;;;5012718;28;20194;-82
2022/05/23 12:04:52;;;;;;;6.65;2.33;;;25.40;91.90;;;;;;5013016;28;20383;-83
2022/05/23 12:07:43;;;;;;;6.68;2.40;;;25.90;92.40;;;;;;5012612;28;20170;-82
2022/05/23 12:10:21;;;;;;;5.63;2.20;;;26.50;91.90;;;;;;5012812;28;20193;-83
2022/05/23 12:12:48;;;;;;;3.47;2.10;;;25.90;91.00;;;;;;5012383;28;20287;-82
2022/05/23 12:15:42;;;;;;;3.25;2.55;;;25.70;90.70;;;;;;5012717;28;20210;-83
2022/05/23 12:18:26;;;;;;;5.43;2.60;;;25.70;91.70;;;;;;5012240;28;20170;-84
2022/05/23 12:20:55;;;;;;;3.63;2.13;;;25.50;91.60;;;;;;5010326;28;20191;-82
2022/05/23 12:23:41;;;;;;;13.77;2.60;;;25.70;92.20;;;;;;5011097;28;20232;-80
2022/05/23 12:26:10;;;;;;;4.05;2.38;;;25.30;92.10;;;;;;5011974;28;20169;-80
2022/05/23 12:29:01;;;;;;;5.32;2.25;;;25.30;91.90;;;;;;5011156;28;20514;-81
2022/05/23 12:31:36;;;;;;;4.32;2.22;;;25.50;92.20;;;;;;5011202;28;20625;-84
2022/05/23 12:34:02;;;;;;;4.73;2.20;;;25.80;92.00;;;;;;5010611;28;20441;-83
2022/05/23 12:36:31;;;;;;;6.00;1.90;;;25.90;91.20;;;;;;5011841;28;20250;-83
2022/05/23 12:39:45;;;;;;;3.05;2.20;;;25.80;90.90;;;;;;5012105;28;20381;-81
2022/05/23 12:42:41;;;;;;;4.38;2.22;;;25.70;90.70;;;;;;4993590;28;20222;-83
2022/05/23 12:45:28;;;;;;;3.97;2.10;;;25.70;90.20;;;;;;5010093;28;20555;-83
2022/05/23 12:48:12;;;;;;;8.68;2.75;;;25.50;90.70;;;;;;5010623;28;20169;-83
2022/05/23 12:51:03;;;;;;;4.90;2.30;;;25.20;90.90;;;;;;5012186;28;20199;-81
2022/05/23 12:54:04;;;;;;;3.65;2.10;;;25.40;91.60;;;;;;5013059;28;20206;-84
2022/05/23 12:57:03;;;;;;;4.90;1.98;;;25.60;91.90;;;;;;5012414;28;20268;-82
2022/05/23 12:59:47;;;;;;;4.45;2.28;;;25.60;90.70;;;;;;5000897;28;20652;-83
2022/05/23 13:02:41;;;;;;;5.53;2.20;;;25.30;90.80;;;;;;5011998;28;20190;-83
2022/05/23 13:05:27;;;;;;;4.85;2.25;;;25.40;90.70;;;;;;5005599;28;20656;-81
2022/05/23 13:08:01;;;;;;;9.07;2.08;;;25.40;91.10;;;;;;5013585;28;20174;-85
2022/05/23 13:10:40;;;;;;;6.57;2.20;;;25.30;90.90;;;;;;5013626;28;20198;-83
2022/05/23 13:13:28;;;;;;;6.75;1.95;;;25.30;91.10;;;;;;5012348;28;20176;-79
2022/05/23 13:15:54;;;;;;;6.88;1.95;;;25.40;92.20;;;;;;5011555;28;20193;-77
2022/05/23 13:23:58;;;;;;;3.92;2.20;;;25.40;91.10;;;;;;5014971;28;20218;-82
2022/05/23 13:26:27;;;;;;;4.68;1.92;;;25.30;91.00;;;;;;5014464;28;20166;-81
2022/05/23 13:28:53;;;;;;;4.32;2.08;;;25.40;90.30;;;;;;5014033;28;20170;-81
2022/05/23 13:31:33;;;;;;;6.90;2.20;;;25.30;90.00;;;;;;5013473;28;20187;-79
2022/05/23 13:33:59;;;;;;;6.88;1.95;;;25.60;89.60;;;;;;5012852;28;20199;-77
2022/05/23 13:36:44;;;;;;;8.40;2.47;;;25.60;90.50;;;;;;5012718;28;20178;-81
2022/05/23 13:39:14;;;;;;;4.10;1.80;;;25.60;90.30;;;;;;5012616;28;20174;-81
2022/05/23 13:41:40;;;;;;;14.18;2.10;;;25.80;89.40;;;;;;5011965;28;20190;-82
2022/05/23 13:44:06;;;;;;;4.60;1.98;;;25.80;91.30;;;;;;5013029;28;20179;-82
2022/05/23 13:46:37;;;;;;;4.63;1.67;;;25.70;90.00;;;;;;5011991;28;20325;-81
2022/05/23 13:49:10;;;;;;;4.25;2.00;;;25.80;90.80;;;;;;5012200;28;20171;-78
2022/05/23 13:51:42;;;;;;;6.43;2.03;;;25.50;90.60;;;;;;5012582;28;20295;-80
2022/05/23 13:54:37;;;;;;;5.22;2.10;;;25.40;90.10;;;;;;5012679;28;20610;-83
2022/05/23 13:57:15;;;;;;;5.25;2.42;;;25.80;90.00;;;;;;5014913;28;20197;-77
2022/05/23 13:59:52;;;;;;;3.00;2.00;;;25.70;89.40;;;;;;5015729;28;20159;-78
2022/05/23 14:02:22;;;;;;;9.68;2.40;;;25.70;90.00;;;;;;5015840;28;20171;-77
2022/05/23 14:04:49;;;;;;;7.85;2.30;;;25.70;89.90;;;;;;5015259;28;20218;-81
2022/05/23 14:07:19;;;;;;;9.32;2.35;;;25.80;90.10;;;;;;5018796;28;20189;-80
2022/05/23 14:09:51;;;;;;;7.85;2.42;;;25.80;89.80;;;;;;5039511;28;20241;-80
2022/05/23 14:12:26;;;;;;;8.70;2.08;;;25.80;90.50;;;;;;5037962;28;20178;-82
2022/05/23 14:14:59;;;;;;;5.43;2.10;;;25.50;90.30;;;;;;5036864;28;20193;-82